KHST

Homestead ARB Airport

Homestead, Florida, USA
METAR KHST 260356Z AUTO 11010KT 10SM FEW020 SCT027 26/23 A2995 RMK AO2 RAB45E55 SLP145 P0000 T02600232
Observed Flight Rules
May-26 @ 03:56 UTC (20 minutes ago) Visual Flight Rules
Wind Visibility Clouds
110° at 10 knots 10 miles
  • Few at 2,000' AGL
  • Scattered at 2,700' AGL
Temperatures Readings Precipitation
Current 26°C / 79°F
Dewpoint 23°C / 73°F
Humidity 84%
Altimeter 29.95" Hg
Pressure 1014.5 hPa
Elevation 2
Current Rain 0.005
METAR KHST 260356Z AUTO 11010KT 10SM FEW020 SCT027 26/23 A2995 RMK AO2 RAB45E55 SLP145 P0000 T02600232
Observed Flight Rules
May-26 @ 03:56 UTC
(20 minutes ago)
VFR
Wind Visibility
110° at 10 knots 10 miles
Clouds
  • Few at 2,000' AGL
  • Scattered at 2,700' AGL
Temperature Dewpoint
26°C / 79°F 23°C / 73°F
Humidity Altimeter Pressure
84% 29.95" Hg 1014.5 hPa
Current Rain
0.005